Time;durP1;ratioP1;P1;durP2;ratioP2;P2;SDS_P1;SDS_P2;PMS_P1;PMS_P2;Temp;Humidity;BMP_temperature;BMP_pressure;BME280_temperature;BME280_humidity;BME280_pressure;Samples;Min_cycle;Max_cycle;Signal;HPM_P1;HPM_P2
2021/10/22 00:01:41;;;;;;;;;;;;;;;6.05;76.50;98241.16;5098245;28;20017;-76
2021/10/22 00:04:07;;;;;;;;;;;;;;;6.08;76.36;98242.72;5081138;28;20400;-75
2021/10/22 00:06:33;;;;;;;;;;;;;;;6.09;76.20;98255.00;5114827;28;19919;-75
2021/10/22 00:08:59;;;;;;;;;;;;;;;6.10;76.54;98258.53;5081381;28;20018;-75
2021/10/22 00:11:25;;;;;;;;;;;;;;;6.11;76.63;98257.56;5097741;28;19927;-75
2021/10/22 00:13:51;;;;;;;;;;;;;;;6.08;76.95;98256.81;5080069;28;19919;-75
2021/10/22 00:16:17;;;;;;;;;;;;;;;6.09;76.94;98257.66;5080924;28;19923;-75
2021/10/22 00:18:42;;;;;;;;;;;;;;;6.23;76.58;98259.25;5080554;28;19927;-76
2021/10/22 00:21:08;;;;;;;;;;;;;;;6.20;76.58;98260.31;5081047;28;19920;-74
2021/10/22 00:23:34;;;;;;;;;;;;;;;6.16;77.22;98258.03;5097551;28;19927;-75
2021/10/22 00:26:00;;;;;;;;;;;;;;;6.28;76.76;98262.34;5114983;28;20389;-77
2021/10/22 00:28:26;;;;;;;;;;;;;;;6.36;76.49;98259.97;5097490;28;19931;-76
2021/10/22 00:30:53;;;;;;;;;;;;;;;6.42;76.12;98262.09;5114471;28;19959;-76
2021/10/22 00:33:19;;;;;;;;;;;;;;;6.51;75.98;98257.88;5080289;28;20298;-74
2021/10/22 00:35:45;;;;;;;;;;;;;;;6.60;75.66;98262.44;5114305;28;19970;-76
2021/10/22 00:38:11;;;;;;;;;;;;;;;6.64;75.63;98265.69;5114368;28;19989;-75
2021/10/22 00:40:37;;;;;;;;;;;;;;;6.65;75.74;98275.34;5080192;28;20378;-76
2021/10/22 00:43:03;;;;;;;;;;;;;;;6.59;75.77;98270.53;5097091;28;19920;-75
2021/10/22 00:45:30;;;;;;;;;;;;;;;6.61;75.96;98279.22;5063677;28;19919;-76
2021/10/22 00:47:55;;;;;;;;;;;;;;;6.65;76.16;98280.66;5096915;28;20308;-76
2021/10/22 00:50:21;;;;;;;;;;;;;;;6.74;75.57;98288.72;5114499;28;20366;-76
2021/10/22 00:52:47;;;;;;;;;;;;;;;6.75;75.51;98289.56;5115132;28;19920;-75
2021/10/22 00:55:13;;;;;;;;;;;;;;;6.70;75.73;98289.09;5096950;28;19930;-75
2021/10/22 00:57:40;;;;;;;;;;;;;;;6.63;76.43;98288.75;5097246;28;19924;-76
2021/10/22 01:00:06;;;;;;;;;;;;;;;6.68;76.32;98281.25;5113799;28;20294;-75
2021/10/22 01:02:34;;;;;;;;;;;;;;;6.70;76.39;98281.97;5080384;28;19924;-76
2021/10/22 01:05:00;;;;;;;;;;;;;;;6.72;76.35;98288.00;5063342;28;19919;-75
2021/10/22 01:07:26;;;;;;;;;;;;;;;6.74;76.44;98293.19;5113806;28;19920;-75
2021/10/22 01:09:52;;;;;;;;;;;;;;;6.72;76.50;98289.81;5097181;28;19972;-76
2021/10/22 01:12:17;;;;;;;;;;;;;;;6.66;77.08;98290.31;5096752;28;20278;-76
2021/10/22 01:14:43;;;;;;;;;;;;;;;6.78;76.99;98299.94;5097009;28;20026;-77
2021/10/22 01:17:28;;;;;;;;;;;;;;;6.78;77.03;98292.81;5113741;28;19927;-76
2021/10/22 01:19:54;;;;;;;;;;;;;;;6.81;76.96;98286.44;5114801;28;19930;-76
2021/10/22 01:22:19;;;;;;;;;;;;;;;6.81;76.90;98297.03;5081760;28;19927;-77
2021/10/22 01:24:45;;;;;;;;;;;;;;;6.81;77.16;98289.91;5080692;28;19920;-78
2021/10/22 01:27:11;;;;;;;;;;;;;;;6.90;76.87;98295.44;5081256;28;19987;-77
2021/10/22 01:29:36;;;;;;;;;;;;;;;6.93;76.83;98296.03;5081177;28;19920;-76
2021/10/22 01:32:03;;;;;;;;;;;;;;;6.97;76.57;98292.16;5080904;28;20294;-77
2021/10/22 01:34:30;;;;;;;;;;;;;;;6.91;77.04;98291.81;5097998;28;19919;-76
2021/10/22 01:36:56;;;;;;;;;;;;;;;6.95;76.79;98296.75;5097791;28;20019;-75
2021/10/22 01:39:22;;;;;;;;;;;;;;;6.98;76.83;98293.84;5096644;28;20018;-75
2021/10/22 01:41:48;;;;;;;;;;;;;;;7.03;76.74;98301.44;5096875;28;20393;-76
2021/10/22 01:44:16;;;;;;;;;;;;;;;7.05;76.94;98295.03;5097057;28;19919;-75
2021/10/22 01:46:42;;;;;;;;;;;;;;;7.06;76.79;98302.03;5096190;28;19973;-76
2021/10/22 01:49:08;;;;;;;;;;;;;;;7.15;77.05;98310.22;5095779;28;19920;-76
2021/10/22 01:51:34;;;;;;;;;;;;;;;7.26;76.15;98303.06;5112983;28;19923;-76
2021/10/22 01:54:00;;;;;;;;;;;;;;;7.30;76.30;98303.66;5078766;28;19920;-76
2021/10/22 01:56:25;;;;;;;;;;;;;;;7.38;76.18;98306.50;5095761;28;19919;-78
2021/10/22 01:58:51;;;;;;;;;;;;;;;7.39;75.99;98312.66;5062042;28;19926;-76
2021/10/22 02:01:17;;;;;;;;;;;;;;;7.34;76.33;98305.06;5095734;28;19926;-76
2021/10/22 02:03:43;;;;;;;;;;;;;;;7.36;76.18;98308.44;5062206;28;19947;-75
2021/10/22 02:06:09;;;;;;;;;;;;;;;7.41;76.20;98314.22;5079667;28;20386;-75
2021/10/22 02:08:36;;;;;;;;;;;;;;;7.42;76.32;98318.56;5078837;28;19919;-76
2021/10/22 02:11:03;;;;;;;;;;;;;;;7.42;76.19;98318.56;5078675;28;19920;-76
2021/10/22 02:13:30;;;;;;;;;;;;;;;7.52;76.29;98316.84;5057378;28;19927;-76
2021/10/22 02:15:56;;;;;;;;;;;;;;;7.61;75.82;98309.03;5040738;28;19920;-76
2021/10/22 02:18:22;;;;;;;;;;;;;;;7.63;75.69;98304.41;5074080;28;19926;-77
2021/10/22 02:20:52;;;;;;;;;;;;;;;7.65;75.90;98305.16;5090691;28;19981;-75
2021/10/22 02:23:18;;;;;;;;;;;;;;;7.74;75.63;98301.69;5057413;28;19955;-76
2021/10/22 02:25:44;;;;;;;;;;;;;;;7.78;75.30;98303.13;5057247;28;19931;-74
2021/10/22 02:28:11;;;;;;;;;;;;;;;7.85;75.26;98298.97;5057296;28;19997;-75
2021/10/22 02:30:37;;;;;;;;;;;;;;;7.93;75.33;98304.47;5057189;28;19955;-75
2021/10/22 02:33:03;;;;;;;;;;;;;;;7.95;75.20;98309.69;5056942;28;19920;-75
2021/10/22 02:35:28;;;;;;;;;;;;;;;7.97;75.11;98308.59;5056631;28;20025;-76
2021/10/22 02:37:54;;;;;;;;;;;;;;;7.98;75.08;98323.56;5057056;28;19920;-75
2021/10/22 02:40:20;;;;;;;;;;;;;;;7.96;75.38;98317.50;5056665;28;20387;-75
2021/10/22 02:42:45;;;;;;;;;;;;;;;8.02;74.91;98327.66;5074162;28;19927;-76
2021/10/22 02:45:11;;;;;;;;;;;;;;;8.04;74.84;98323.03;5086821;28;19925;-76
2021/10/22 02:47:37;;;;;;;;;;;;;;;8.10;74.91;98323.50;5078283;28;19919;-75
2021/10/22 02:50:03;;;;;;;;;;;;;;;8.08;74.80;98322.75;5077745;28;19967;-76
2021/10/22 02:52:29;;;;;;;;;;;;;;;8.12;74.74;98322.34;5078066;28;19920;-77
2021/10/22 02:54:54;;;;;;;;;;;;;;;8.20;74.46;98322.56;5094578;28;19920;-77
2021/10/22 02:57:20;;;;;;;;;;;;;;;8.19;74.33;98315.53;5078337;28;19920;-75
2021/10/22 02:59:46;;;;;;;;;;;;;;;8.22;74.32;98319.75;5095180;28;19920;-75
2021/10/22 03:02:12;;;;;;;;;;;;;;;8.29;74.12;98318.25;5112480;28;19934;-76
2021/10/22 03:04:39;;;;;;;;;;;;;;;8.30;74.26;98314.59;5078498;28;20402;-76
2021/10/22 03:07:04;;;;;;;;;;;;;;;8.31;74.29;98320.78;5095340;28;20024;-77
2021/10/22 03:09:30;;;;;;;;;;;;;;;8.27;74.12;98321.06;5078769;28;19963;-75
2021/10/22 03:11:56;;;;;;;;;;;;;;;8.33;74.05;98319.66;5095149;28;19920;-78
2021/10/22 03:14:22;;;;;;;;;;;;;;;8.39;74.21;98329.81;5046551;28;20004;-77
2021/10/22 03:16:47;;;;;;;;;;;;;;;8.43;73.88;98331.25;5085495;28;19926;-75
2021/10/22 03:19:13;;;;;;;;;;;;;;;8.39;74.27;98334.31;5057577;28;19924;-76
2021/10/22 03:21:39;;;;;;;;;;;;;;;8.36;74.36;98330.06;5091109;28;19920;-76
2021/10/22 03:24:05;;;;;;;;;;;;;;;8.34;74.42;98339.97;5057636;28;19965;-77
2021/10/22 03:26:31;;;;;;;;;;;;;;;8.40;74.14;98352.81;5057996;28;20022;-77
2021/10/22 03:28:56;;;;;;;;;;;;;;;8.41;74.25;98351.81;5058072;28;19920;-75
2021/10/22 03:31:22;;;;;;;;;;;;;;;8.39;74.17;98344.97;5091315;28;19920;-75
2021/10/22 03:33:48;;;;;;;;;;;;;;;8.34;74.45;98342.66;5074135;28;20461;-76
2021/10/22 03:36:14;;;;;;;;;;;;;;;8.29;74.54;98347.53;5074772;28;19973;-75
2021/10/22 03:38:40;;;;;;;;;;;;;;;8.31;74.42;98342.91;5073926;28;19927;-76
2021/10/22 03:41:07;;;;;;;;;;;;;;;8.40;74.40;98336.84;5091146;28;19920;-77
2021/10/22 03:43:34;;;;;;;;;;;;;;;8.45;74.26;98349.75;5074490;28;19927;-79
2021/10/22 03:46:00;;;;;;;;;;;;;;;8.39;74.44;98363.59;5074430;28;19920;-76
2021/10/22 03:48:26;;;;;;;;;;;;;;;8.37;74.42;98358.41;5075235;28;19927;-78
2021/10/22 03:50:51;;;;;;;;;;;;;;;8.39;74.38;98367.09;5077708;28;19924;-75
2021/10/22 03:53:17;;;;;;;;;;;;;;;8.35;74.78;98359.47;5078405;28;20007;-75
2021/10/22 03:55:43;;;;;;;;;;;;;;;8.34;74.88;98369.28;5061611;28;19931;-79
2021/10/22 03:58:09;;;;;;;;;;;;;;;8.34;74.99;98363.09;5095456;28;19919;-76
2021/10/22 04:00:35;;;;;;;;;;;;;;;8.27;75.43;98352.13;5094381;28;19920;-74
2021/10/22 04:03:01;;;;;;;;;;;;;;;8.31;75.24;98337.59;5094365;28;20291;-80
2021/10/22 04:05:27;;;;;;;;;;;;;;;8.33;75.49;98346.28;5060852;28;19924;-76
2021/10/22 04:07:53;;;;;;;;;;;;;;;8.52;75.71;98346.41;5081749;28;20306;-76
2021/10/22 04:10:18;;;;;;;;;;;;;;;8.95;77.38;98355.09;5049356;28;19959;-76
2021/10/22 04:12:44;;;;;;;;;;;;;;;9.20;74.87;98377.75;5041310;28;19920;-75
2021/10/22 04:15:10;;;;;;;;;;;;;;;9.18;73.59;98371.72;5057516;28;19920;-77
2021/10/22 04:17:37;;;;;;;;;;;;;;;9.16;73.23;98371.84;5041076;28;19920;-76
2021/10/22 04:20:03;;;;;;;;;;;;;;;9.12;72.89;98372.25;5057335;28;19920;-77
2021/10/22 04:22:29;;;;;;;;;;;;;;;9.19;72.88;98366.22;5090476;28;19982;-78
2021/10/22 04:24:55;;;;;;;;;;;;;;;9.17;72.73;98375.34;5057149;28;19956;-74
2021/10/22 04:27:21;;;;;;;;;;;;;;;9.12;73.00;98377.59;5040528;28;19924;-76
2021/10/22 04:29:46;;;;;;;;;;;;;;;9.11;72.94;98378.56;5057070;28;19920;-76
2021/10/22 04:32:12;;;;;;;;;;;;;;;9.00;73.55;98383.03;5040442;28;20440;-76
2021/10/22 04:34:38;;;;;;;;;;;;;;;8.95;73.64;98379.06;5057177;28;19927;-77
2021/10/22 04:37:23;;;;;;;;;;;;;;;9.04;73.63;98382.75;5040151;28;19974;-76
2021/10/22 04:42:40;;;;;;;;;;;;;;;9.04;73.81;98388.94;5074100;28;20371;-77
2021/10/22 04:45:09;;;;;;;;;;;;;;;9.00;73.79;98396.38;5040606;28;20375;-75
2021/10/22 04:47:36;;;;;;;;;;;;;;;8.99;74.17;98380.53;5056808;28;19920;-78
2021/10/22 04:50:03;;;;;;;;;;;;;;;8.97;74.26;98377.97;5056532;28;20387;-77
2021/10/22 04:52:28;;;;;;;;;;;;;;;9.13;73.83;98376.59;5073575;28;19928;-76
2021/10/22 04:54:54;;;;;;;;;;;;;;;9.15;73.61;98380.81;5056183;28;19920;-77
2021/10/22 04:57:20;;;;;;;;;;;;;;;9.23;73.37;98370.31;5072362;28;19966;-76
2021/10/22 04:59:46;;;;;;;;;;;;;;;9.21;73.43;98374.09;5070157;28;19935;-76
2021/10/22 05:02:11;;;;;;;;;;;;;;;9.26;73.37;98382.53;5038695;28;19927;-77
2021/10/22 05:04:37;;;;;;;;;;;;;;;9.22;73.24;98375.78;5055925;28;19973;-76
2021/10/22 05:07:03;;;;;;;;;;;;;;;9.20;73.65;98375.06;5022627;28;19956;-76
2021/10/22 05:09:29;;;;;;;;;;;;;;;9.29;73.12;98371.59;5055758;28;19920;-76
2021/10/22 05:11:54;;;;;;;;;;;;;;;9.32;73.15;98371.28;5072243;28;20385;-77
2021/10/22 05:14:20;;;;;;;;;;;;;;;9.34;73.06;98355.16;5074139;28;20394;-77
2021/10/22 05:16:46;;;;;;;;;;;;;;;9.26;73.58;98368.34;5056227;28;19920;-76
2021/10/22 05:19:11;;;;;;;;;;;;;;;9.29;73.39;98360.94;5072864;28;19920;-75
2021/10/22 05:21:37;;;;;;;;;;;;;;;9.36;73.41;98370.03;5039423;28;20391;-75
2021/10/22 05:24:03;;;;;;;;;;;;;;;9.35;73.44;98376.34;5055965;28;19977;-76
2021/10/22 05:26:29;;;;;;;;;;;;;;;9.29;73.77;98382.25;5039561;28;19943;-76
2021/10/22 05:28:54;;;;;;;;;;;;;;;9.34;73.62;98373.84;5056050;28;19925;-75
2021/10/22 05:31:20;;;;;;;;;;;;;;;9.34;73.91;98363.16;5039477;28;20046;-76
2021/10/22 05:33:46;;;;;;;;;;;;;;;9.47;73.84;98369.06;5055560;28;20342;-76
2021/10/22 05:36:12;;;;;;;;;;;;;;;9.46;73.61;98368.22;5038876;28;19920;-76
2021/10/22 05:38:37;;;;;;;;;;;;;;;9.58;73.70;98357.41;5038272;28;19920;-77
2021/10/22 05:41:03;;;;;;;;;;;;;;;9.65;73.13;98356.72;5055273;28;19979;-76
2021/10/22 05:43:29;;;;;;;;;;;;;;;9.73;73.33;98354.16;5038713;28;19920;-75
2021/10/22 05:45:55;;;;;;;;;;;;;;;9.87;73.35;98350.25;5055325;28;19920;-76
2021/10/22 05:48:20;;;;;;;;;;;;;;;9.91;72.62;98356.97;5055239;28;19920;-76
2021/10/22 05:50:46;;;;;;;;;;;;;;;10.01;72.68;98372.16;5038432;28;20018;-75
2021/10/22 05:53:12;;;;;;;;;;;;;;;10.06;72.60;98383.22;5071291;28;19920;-76
2021/10/22 05:55:38;;;;;;;;;;;;;;;9.91;72.43;98378.31;5054930;28;19920;-76
2021/10/22 05:58:05;;;;;;;;;;;;;;;9.91;72.90;98388.16;5072074;28;19924;-77
2021/10/22 06:00:31;;;;;;;;;;;;;;;9.96;72.49;98385.91;5071710;28;19921;-77
2021/10/22 06:02:58;;;;;;;;;;;;;;;10.03;72.64;98375.50;5071995;28;19972;-76
2021/10/22 06:05:24;;;;;;;;;;;;;;;9.98;72.44;98366.09;5038742;28;19972;-75
2021/10/22 06:07:50;;;;;;;;;;;;;;;10.02;72.73;98360.47;5039182;28;19920;-76
2021/10/22 06:10:16;;;;;;;;;;;;;;;10.15;72.52;98352.97;5037313;28;19931;-76
2021/10/22 06:12:42;;;;;;;;;;;;;;;10.14;72.05;98356.66;5020639;28;20266;-76
2021/10/22 06:15:08;;;;;;;;;;;;;;;10.24;72.12;98348.63;5070632;28;19920;-75
2021/10/22 06:17:33;;;;;;;;;;;;;;;10.30;72.29;98340.03;5037902;28;19967;-75
2021/10/22 06:20:07;;;;;;;;;;;;;;;10.38;72.05;98334.81;5053993;28;19981;-74
2021/10/22 06:23:53;;;;;;;;;;;;;;;10.42;71.66;98329.06;5071004;28;20401;-76
2021/10/22 06:25:38;;;;;;;;;;;;;;;10.41;71.84;98338.03;5070719;28;19920;-76
2021/10/22 06:28:05;;;;;;;;;;;;;;;10.36;71.99;98340.31;5070705;28;20391;-75
2021/10/22 06:30:33;;;;;;;;;;;;;;;10.47;71.94;98346.47;5070493;28;19924;-75
2021/10/22 06:32:59;;;;;;;;;;;;;;;10.51;71.79;98355.88;5020714;28;19920;-76
2021/10/22 06:35:25;;;;;;;;;;;;;;;10.51;71.78;98337.16;5054221;28;19927;-76
2021/10/22 06:37:51;;;;;;;;;;;;;;;10.53;71.61;98341.38;5037453;28;20057;-76
2021/10/22 06:40:17;;;;;;;;;;;;;;;10.48;71.65;98358.84;5054065;28;19927;-76
2021/10/22 06:42:43;;;;;;;;;;;;;;;10.40;72.00;98362.22;5072685;28;19923;-76
2021/10/22 06:45:10;;;;;;;;;;;;;;;10.34;72.47;98346.78;5055053;28;19926;-76
2021/10/22 06:47:36;;;;;;;;;;;;;;;10.33;72.91;98339.75;5055135;28;19943;-76
2021/10/22 06:50:04;;;;;;;;;;;;;;;10.30;73.05;98346.22;5071243;28;20332;-77
2021/10/22 06:52:30;;;;;;;;;;;;;;;10.36;72.91;98326.94;5072385;28;19920;-76
2021/10/22 06:54:56;;;;;;;;;;;;;;;10.33;72.91;98329.91;5054747;28;20057;-76
2021/10/22 06:57:22;;;;;;;;;;;;;;;10.36;73.31;98313.59;5054851;28;19974;-76
2021/10/22 06:59:48;;;;;;;;;;;;;;;10.33;72.91;98319.22;5054240;28;19956;-77
2021/10/22 07:02:13;;;;;;;;;;;;;;;10.38;73.07;98310.75;5038094;28;20389;-77
2021/10/22 07:04:47;;;;;;;;;;;;;;;10.35;72.99;98322.59;5038104;28;20042;-77
2021/10/22 07:07:17;;;;;;;;;;;;;;;10.37;73.12;98330.47;5056217;28;20303;-76
2021/10/22 07:09:43;;;;;;;;;;;;;;;10.37;73.07;98347.34;5071238;28;19951;-77
2021/10/22 07:12:09;;;;;;;;;;;;;;;10.27;73.44;98351.88;5054676;28;20049;-76
2021/10/22 07:14:35;;;;;;;;;;;;;;;10.29;73.79;98355.22;5054475;28;20362;-77
2021/10/22 07:17:04;;;;;;;;;;;;;;;10.43;72.89;98362.78;5054691;28;19927;-75
2021/10/22 07:19:35;;;;;;;;;;;;;;;10.27;73.45;98345.66;5054530;28;20295;-76
2021/10/22 07:22:07;;;;;;;;;;;;;;;10.31;73.57;98337.25;5038468;28;19924;-76
2021/10/22 07:24:33;;;;;;;;;;;;;;;10.35;73.50;98348.47;5060138;28;20278;-77
2021/10/22 07:27:00;;;;;;;;;;;;;;;10.42;73.23;98337.06;5041767;28;19924;-76
2021/10/22 07:29:27;;;;;;;;;;;;;;;10.44;73.21;98335.06;5074637;28;20493;-76
2021/10/22 07:31:52;;;;;;;;;;;;;;;10.48;72.88;98332.13;5041235;28;20018;-76
2021/10/22 07:34:21;;;;;;;;;;;;;;;10.55;72.82;98333.22;5041402;28;20054;-76
2021/10/22 07:36:47;;;;;;;;;;;;;;;10.54;72.76;98347.56;5041652;28;19920;-77
2021/10/22 07:39:13;;;;;;;;;;;;;;;10.53;72.98;98333.38;5058193;28;20287;-76
2021/10/22 07:41:39;;;;;;;;;;;;;;;10.56;72.88;98322.38;5041409;28;20442;-76
2021/10/22 07:44:05;;;;;;;;;;;;;;;10.58;72.95;98323.06;5041646;28;19920;-76
2021/10/22 07:46:31;;;;;;;;;;;;;;;10.73;72.58;98326.09;5073208;28;20393;-76
2021/10/22 07:48:57;;;;;;;;;;;;;;;10.61;72.68;98346.00;5069508;28;19920;-76
2021/10/22 07:51:23;;;;;;;;;;;;;;;10.58;72.92;98344.44;5081241;28;19919;-77
2021/10/22 07:53:49;;;;;;;;;;;;;;;10.62;73.13;98326.28;5081438;28;19920;-77
2021/10/22 07:56:15;;;;;;;;;;;;;;;10.83;72.51;98336.72;5098381;28;20257;-76
2021/10/22 07:58:41;;;;;;;;;;;;;;;10.86;72.14;98337.25;5081006;28;20013;-77
2021/10/22 08:01:07;;;;;;;;;;;;;;;10.94;72.03;98334.72;5080918;28;20397;-78
2021/10/22 08:03:33;;;;;;;;;;;;;;;10.98;71.87;98340.56;5115386;28;20018;-77
2021/10/22 08:06:02;;;;;;;;;;;;;;;10.94;72.04;98334.72;5115197;28;20386;-77
2021/10/22 08:08:28;;;;;;;;;;;;;;;10.92;72.01;98341.19;5114880;28;20386;-78
2021/10/22 08:10:55;;;;;;;;;;;;;;;10.96;71.83;98336.38;5097778;28;19924;-76
2021/10/22 08:13:21;;;;;;;;;;;;;;;10.93;71.77;98340.19;5081231;28;19989;-75
2021/10/22 08:15:47;;;;;;;;;;;;;;;10.92;71.96;98344.69;5080815;28;19919;-78
2021/10/22 08:18:12;;;;;;;;;;;;;;;10.97;72.02;98338.06;5080943;28;19923;-77
2021/10/22 08:20:39;;;;;;;;;;;;;;;11.01;72.05;98334.94;5097815;28;19964;-76
2021/10/22 08:23:05;;;;;;;;;;;;;;;11.03;71.59;98332.13;5115774;28;20343;-76
2021/10/22 08:25:31;;;;;;;;;;;;;;;11.11;71.55;98321.50;5080587;28;19931;-77
2021/10/22 08:27:58;;;;;;;;;;;;;;;11.19;71.07;98316.25;5097422;28;20328;-78
2021/10/22 08:30:26;;;;;;;;;;;;;;;11.27;70.82;98328.84;5097571;28;19937;-76
2021/10/22 08:32:55;;;;;;;;;;;;;;;11.37;70.53;98333.16;5114775;28;19920;-76
2021/10/22 08:35:21;;;;;;;;;;;;;;;11.49;70.17;98338.28;5080289;28;20039;-77
2021/10/22 08:37:47;;;;;;;;;;;;;;;11.52;69.65;98337.97;5097353;28;19920;-78
2021/10/22 08:40:13;;;;;;;;;;;;;;;11.46;69.93;98333.22;5080675;28;19919;-78
2021/10/22 08:42:39;;;;;;;;;;;;;;;11.47;70.16;98324.19;5080567;28;19984;-76
2021/10/22 08:45:06;;;;;;;;;;;;;;;11.46;70.12;98328.69;5097019;28;20374;-76
2021/10/22 08:47:34;;;;;;;;;;;;;;;11.50;69.75;98310.50;5097019;28;19963;-78
2021/10/22 08:50:01;;;;;;;;;;;;;;;11.54;69.48;98314.56;5080122;28;19967;-77
2021/10/22 08:52:27;;;;;;;;;;;;;;;11.58;69.29;98307.91;5080312;28;19923;-77
2021/10/22 08:54:53;;;;;;;;;;;;;;;11.50;69.33;98305.16;5081512;28;19920;-76
2021/10/22 08:57:19;;;;;;;;;;;;;;;11.49;69.61;98284.75;5096336;28;19920;-78
2021/10/22 08:59:44;;;;;;;;;;;;;;;11.54;69.24;98293.13;5097090;28;19919;-77
2021/10/22 09:02:14;;;;;;;;;;;;;;;11.57;69.11;98282.97;5073291;28;19920;-77
2021/10/22 09:04:41;;;;;;;;;;;;;;;11.76;68.86;98287.28;5057771;28;19923;-75
2021/10/22 09:07:09;;;;;;;;;;;;;;;11.83;68.77;98299.09;5080268;28;19919;-77
2021/10/22 09:09:35;;;;;;;;;;;;;;;11.77;68.89;98291.69;5079657;28;19923;-75
2021/10/22 09:12:01;;;;;;;;;;;;;;;11.68;69.04;98297.94;5063316;28;19958;-77
2021/10/22 09:14:28;;;;;;;;;;;;;;;11.62;68.91;98290.53;5113901;28;19959;-78
2021/10/22 09:16:54;;;;;;;;;;;;;;;11.63;69.28;98297.59;5097425;28;19923;-79
2021/10/22 09:19:36;;;;;;;;;;;;;;;11.63;69.49;98298.41;5080562;28;19919;-82
2021/10/22 09:22:21;;;;;;;;;;;;;;;11.69;69.20;98270.16;5080847;28;19919;-79
2021/10/22 09:24:58;;;;;;;;;;;;;;;11.82;69.19;98273.28;5097023;28;20357;-79
2021/10/22 09:27:33;;;;;;;;;;;;;;;11.89;68.46;98295.81;5097233;28;19973;-84
2021/10/22 09:29:59;;;;;;;;;;;;;;;12.56;74.09;98281.75;5057753;28;19920;-80
2021/10/22 09:32:25;;;;;;;;;;;;;;;13.32;69.16;98292.41;5073908;28;19974;-77
2021/10/22 09:34:52;;;;;;;;;;;;;;;14.08;68.80;98282.31;5073013;28;19920;-77
2021/10/22 09:37:17;;;;;;;;;;;;;;;14.21;61.87;98279.06;5039501;28;19927;-76
2021/10/22 09:39:43;;;;;;;;;;;;;;;13.82;61.86;98288.72;5038986;28;20283;-77
2021/10/22 09:42:12;;;;;;;;;;;;;;;13.46;62.91;98290.88;5055086;28;19934;-78
2021/10/22 09:44:40;;;;;;;;;;;;;;;13.28;63.21;98290.22;5055889;28;19920;-76
2021/10/22 09:47:07;;;;;;;;;;;;;;;13.03;63.70;98290.13;5091960;28;19970;-76
2021/10/22 09:49:36;;;;;;;;;;;;;;;13.04;63.80;98299.84;5068667;28;20010;-75
2021/10/22 09:52:03;;;;;;;;;;;;;;;12.81;64.43;98301.47;5084434;28;20026;-77
2021/10/22 09:54:32;;;;;;;;;;;;;;;12.63;65.02;98307.75;5063092;28;19920;-75
2021/10/22 09:57:04;;;;;;;;;;;;;;;12.51;65.78;98301.00;5113277;28;19919;-74
2021/10/22 09:59:31;;;;;;;;;;;;;;;12.49;65.61;98304.88;5090151;28;19920;-75
2021/10/22 10:01:57;;;;;;;;;;;;;;;12.38;66.64;98296.09;5074754;28;19931;-75
2021/10/22 10:04:24;;;;;;;;;;;;;;;12.27;66.86;98299.06;5058867;28;19920;-75
2021/10/22 10:06:50;;;;;;;;;;;;;;;12.30;66.75;98295.22;5058733;28;19934;-76
2021/10/22 10:09:16;;;;;;;;;;;;;;;12.22;67.17;98298.66;5061108;28;19920;-77
2021/10/22 10:11:42;;;;;;;;;;;;;;;12.22;66.76;98300.50;5079226;28;19930;-75
2021/10/22 10:14:11;;;;;;;;;;;;;;;12.14;67.19;98301.31;5048247;28;19930;-76
2021/10/22 10:16:37;;;;;;;;;;;;;;;12.22;66.70;98314.75;5078135;28;20390;-76
2021/10/22 10:19:06;;;;;;;;;;;;;;;12.19;67.11;98322.28;5059931;28;19951;-77
2021/10/22 10:21:38;;;;;;;;;;;;;;;12.20;66.49;98335.50;5076202;28;19965;-76
2021/10/22 10:24:05;;;;;;;;;;;;;;;12.09;66.58;98320.53;5058554;28;20727;-78
2021/10/22 10:26:31;;;;;;;;;;;;;;;12.11;66.66;98318.56;5058178;28;19923;-77
2021/10/22 10:28:58;;;;;;;;;;;;;;;12.13;66.58;98315.72;5041208;28;19927;-76
2021/10/22 10:31:37;;;;;;;;;;;;;;;12.09;66.73;98325.06;5074915;28;19943;-78
2021/10/22 10:34:42;;;;;;;;;;;;;;;12.10;66.36;98316.84;5058343;28;19920;-75
2021/10/22 10:37:20;;;;;;;;;;;;;;;12.06;66.69;98317.34;5010250;28;19921;-76
2021/10/22 10:39:49;;;;;;;;;;;;;;;12.09;66.47;98320.53;4962172;28;20377;-75
2021/10/22 10:42:16;;;;;;;;;;;;;;;12.17;66.69;98325.09;5016034;28;19955;-76
2021/10/22 10:44:45;;;;;;;;;;;;;;;12.12;66.60;98338.97;5074962;28;19926;-75
2021/10/22 10:47:30;;;;;;;;;;;;;;;12.14;66.79;98307.50;5090281;28;19942;-76
2021/10/22 10:50:03;;;;;;;;;;;;;;;12.14;66.46;98312.03;5057488;28;20019;-75
2021/10/22 10:52:41;;;;;;;;;;;;;;;12.23;66.10;98310.25;5074620;28;20236;-75
2021/10/22 10:55:32;;;;;;;;;;;;;;;12.10;66.15;98289.22;5074077;28;19920;-76
2021/10/22 10:57:58;;;;;;;;;;;;;;;12.01;66.34;98306.25;5075549;28;19926;-76
2021/10/22 11:00:32;;;;;;;;;;;;;;;11.96;66.87;98319.25;5089497;28;20368;-75
2021/10/22 11:03:05;;;;;;;;;;;;;;;11.94;66.81;98299.84;5098696;28;19969;-77
2021/10/22 11:05:53;;;;;;;;;;;;;;;11.94;66.68;98297.16;5082773;28;19919;-78
2021/10/22 11:08:23;;;;;;;;;;;;;;;11.86;66.88;98298.78;5117285;28;19939;-77
2021/10/22 11:10:52;;;;;;;;;;;;;;;11.78;66.93;98296.03;5075161;28;19932;-78
2021/10/22 11:13:18;;;;;;;;;;;;;;;11.74;67.09;98308.03;5091955;28;19920;-78
2021/10/22 11:15:44;;;;;;;;;;;;;;;11.68;67.17;98312.16;5068196;28;19946;-74
2021/10/22 11:18:12;;;;;;;;;;;;;;;11.75;66.99;98304.38;5068600;28;19920;-77
2021/10/22 11:20:38;;;;;;;;;;;;;;;11.75;66.65;98306.22;5047007;28;19921;-77
2021/10/22 11:23:05;;;;;;;;;;;;;;;11.85;66.59;98294.44;5036023;28;19924;-76
2021/10/22 11:25:31;;;;;;;;;;;;;;;11.76;66.75;98292.66;5067283;28;20002;-76
2021/10/22 11:27:58;;;;;;;;;;;;;;;11.70;66.95;98274.56;5060174;28;20268;-77
2021/10/22 11:30:24;;;;;;;;;;;;;;;11.75;67.08;98280.28;5068611;28;20385;-78
2021/10/22 11:32:51;;;;;;;;;;;;;;;11.79;66.95;98295.03;5051789;28;19952;-77
2021/10/22 11:35:20;;;;;;;;;;;;;;;11.75;67.13;98301.69;5063925;28;19958;-76
2021/10/22 11:37:46;;;;;;;;;;;;;;;11.80;66.69;98293.19;5049916;28;20026;-77
2021/10/22 11:40:14;;;;;;;;;;;;;;;11.83;66.93;98287.53;5067523;28;20439;-77
2021/10/22 11:42:40;;;;;;;;;;;;;;;11.75;67.11;98293.66;5052040;28;19927;-77
2021/10/22 11:45:08;;;;;;;;;;;;;;;11.78;66.65;98296.03;5057930;28;20006;-77
2021/10/22 11:47:41;;;;;;;;;;;;;;;11.80;66.59;98307.41;5041854;28;19920;-77
2021/10/22 11:50:08;;;;;;;;;;;;;;;11.88;66.47;98312.88;5041258;28;19927;-76
2021/10/22 11:52:34;;;;;;;;;;;;;;;11.78;66.66;98330.84;5041222;28;19931;-77
2021/10/22 11:55:00;;;;;;;;;;;;;;;11.76;66.85;98327.47;5024902;28;20275;-76
2021/10/22 11:57:26;;;;;;;;;;;;;;;11.85;66.27;98331.09;5057805;28;19970;-77
2021/10/22 11:59:53;;;;;;;;;;;;;;;11.74;66.37;98332.16;5058024;28;19956;-77
2021/10/22 12:02:19;;;;;;;;;;;;;;;11.75;66.47;98328.47;5074182;28;19920;-77
2021/10/22 12:04:46;;;;;;;;;;;;;;;11.68;66.77;98344.28;5074310;28;19920;-77
2021/10/22 12:07:12;;;;;;;;;;;;;;;11.73;66.93;98341.16;5041189;28;19927;-77
2021/10/22 12:09:39;;;;;;;;;;;;;;;11.67;66.95;98347.13;5056578;28;20007;-76
2021/10/22 12:12:05;;;;;;;;;;;;;;;11.62;66.66;98333.34;5040828;28;19924;-77
2021/10/22 12:14:32;;;;;;;;;;;;;;;11.65;66.85;98343.75;5074469;28;19926;-76
2021/10/22 12:16:59;;;;;;;;;;;;;;;11.71;66.65;98337.81;5057698;28;19956;-76
2021/10/22 12:19:25;;;;;;;;;;;;;;;11.64;66.60;98332.22;5040569;28;19920;-76
2021/10/22 12:21:52;;;;;;;;;;;;;;;11.62;66.77;98333.34;5057306;28;19920;-77
2021/10/22 12:24:18;;;;;;;;;;;;;;;11.50;67.09;98329.25;5057169;28;19928;-77
2021/10/22 12:26:44;;;;;;;;;;;;;;;11.46;67.30;98327.88;5040895;28;20039;-76
2021/10/22 12:29:13;;;;;;;;;;;;;;;11.46;67.41;98338.56;5058003;28;20003;-76
2021/10/22 12:31:46;;;;;;;;;;;;;;;11.49;67.41;98328.41;5057996;28;19920;-76
2021/10/22 12:34:14;;;;;;;;;;;;;;;11.48;67.71;98321.38;5057294;28;19919;-77
2021/10/22 12:36:42;;;;;;;;;;;;;;;11.47;67.41;98326.88;5040632;28;19920;-76
2021/10/22 12:39:21;;;;;;;;;;;;;;;11.39;67.73;98307.06;5039869;28;19958;-76
2021/10/22 12:41:46;;;;;;;;;;;;;;;11.40;67.69;98314.13;5056602;28;19920;-78
2021/10/22 12:44:12;;;;;;;;;;;;;;;11.43;67.56;98321.84;5040436;28;20291;-76
2021/10/22 12:46:51;;;;;;;;;;;;;;;11.49;67.50;98338.28;5039978;28;19970;-77
2021/10/22 12:49:22;;;;;;;;;;;;;;;11.46;67.31;98325.19;5064922;28;19919;-75
2021/10/22 12:51:53;;;;;;;;;;;;;;;11.48;67.46;98339.28;5097683;28;19920;-77
2021/10/22 12:54:19;;;;;;;;;;;;;;;11.51;67.38;98341.63;5097302;28;20306;-77